Terminal Aerodrome Forecast
Issued by NWS

Home | Current Version | Previous Version | Text Only | Print | Product List | Glossary On
Versions: 1 2 3 4 5 6 7 8 9 10 11 12 13 14 15 16 17 18
000
FTUS45 KSLC 061517 AAB
TAFEVW
TAF AMD
KEVW 061517Z 0615/0712 26009KT P6SM BKN090 OVC150
     FM061700 10012KT P6SM BKN100 OVC150
     FM061900 10015G22KT P6SM VCSH BKN070 OVC100
     FM070100 08010KT P6SM VCSH BKN070 BKN100=

USA.gov is the U.S. government's official web portal to all federal, state and local government web resources and services.